sensor_id;sensor_type;location;lat;lon;timestamp;P1;durP1;ratioP1;P2;durP2;ratioP2
58864;SDS011;45702;52.982;6.658;2023-04-06T00:02:02;21.63;;;14.10;;
58864;SDS011;45702;52.982;6.658;2023-04-06T00:04:28;20.77;;;14.15;;
58864;SDS011;45702;52.982;6.658;2023-04-06T00:06:54;20.73;;;14.48;;
58864;SDS011;45702;52.982;6.658;2023-04-06T00:09:21;22.35;;;14.27;;
58864;SDS011;45702;52.982;6.658;2023-04-06T00:11:47;21.25;;;14.20;;
58864;SDS011;45702;52.982;6.658;2023-04-06T00:14:13;19.58;;;13.52;;
58864;SDS011;45702;52.982;6.658;2023-04-06T00:16:42;22.83;;;13.77;;
58864;SDS011;45702;52.982;6.658;2023-04-06T00:19:08;19.83;;;13.77;;
58864;SDS011;45702;52.982;6.658;2023-04-06T00:21:34;20.92;;;13.52;;
58864;SDS011;45702;52.982;6.658;2023-04-06T00:24:00;21.98;;;15.50;;
58864;SDS011;45702;52.982;6.658;2023-04-06T00:26:28;20.10;;;13.35;;
58864;SDS011;45702;52.982;6.658;2023-04-06T00:28:55;23.05;;;14.52;;
58864;SDS011;45702;52.982;6.658;2023-04-06T00:31:21;22.15;;;13.82;;
58864;SDS011;45702;52.982;6.658;2023-04-06T00:33:47;19.90;;;14.05;;
58864;SDS011;45702;52.982;6.658;2023-04-06T00:36:15;21.20;;;14.48;;
58864;SDS011;45702;52.982;6.658;2023-04-06T00:38:41;20.05;;;13.43;;
58864;SDS011;45702;52.982;6.658;2023-04-06T00:41:07;19.95;;;13.77;;
58864;SDS011;45702;52.982;6.658;2023-04-06T00:43:33;21.48;;;14.05;;
58864;SDS011;45702;52.982;6.658;2023-04-06T00:45:59;22.83;;;13.18;;
58864;SDS011;45702;52.982;6.658;2023-04-06T00:48:25;21.98;;;13.52;;
58864;SDS011;45702;52.982;6.658;2023-04-06T00:50:51;26.90;;;14.35;;
58864;SDS011;45702;52.982;6.658;2023-04-06T00:53:17;21.75;;;13.30;;
58864;SDS011;45702;52.982;6.658;2023-04-06T00:55:43;20.25;;;12.93;;
58864;SDS011;45702;52.982;6.658;2023-04-06T00:58:09;21.95;;;13.27;;
58864;SDS011;45702;52.982;6.658;2023-04-06T01:00:36;24.52;;;14.02;;
58864;SDS011;45702;52.982;6.658;2023-04-06T01:03:02;20.75;;;14.02;;
58864;SDS011;45702;52.982;6.658;2023-04-06T01:05:32;22.15;;;13.38;;
58864;SDS011;45702;52.982;6.658;2023-04-06T01:07:58;19.63;;;13.32;;
58864;SDS011;45702;52.982;6.658;2023-04-06T01:10:25;21.92;;;13.23;;
58864;SDS011;45702;52.982;6.658;2023-04-06T01:12:51;22.27;;;13.80;;
58864;SDS011;45702;52.982;6.658;2023-04-06T01:15:17;21.92;;;13.00;;
58864;SDS011;45702;52.982;6.658;2023-04-06T01:17:44;20.13;;;13.55;;
58864;SDS011;45702;52.982;6.658;2023-04-06T01:20:10;19.33;;;12.98;;
58864;SDS011;45702;52.982;6.658;2023-04-06T01:22:36;20.92;;;14.05;;
58864;SDS011;45702;52.982;6.658;2023-04-06T01:25:02;20.52;;;13.68;;
58864;SDS011;45702;52.982;6.658;2023-04-06T01:27:28;21.75;;;13.45;;
58864;SDS011;45702;52.982;6.658;2023-04-06T01:29:55;20.98;;;13.57;;
58864;SDS011;45702;52.982;6.658;2023-04-06T01:32:21;19.58;;;13.68;;
58864;SDS011;45702;52.982;6.658;2023-04-06T01:34:47;18.58;;;13.80;;
58864;SDS011;45702;52.982;6.658;2023-04-06T01:37:13;21.00;;;13.52;;
58864;SDS011;45702;52.982;6.658;2023-04-06T01:39:39;22.65;;;13.32;;
58864;SDS011;45702;52.982;6.658;2023-04-06T01:42:05;18.40;;;12.45;;
58864;SDS011;45702;52.982;6.658;2023-04-06T01:44:31;21.92;;;12.95;;
58864;SDS011;45702;52.982;6.658;2023-04-06T01:46:57;22.27;;;13.40;;
58864;SDS011;45702;52.982;6.658;2023-04-06T01:49:23;21.80;;;12.80;;
58864;SDS011;45702;52.982;6.658;2023-04-06T01:51:50;21.92;;;13.85;;
58864;SDS011;45702;52.982;6.658;2023-04-06T01:54:16;18.70;;;13.00;;
58864;SDS011;45702;52.982;6.658;2023-04-06T01:56:42;21.80;;;13.30;;
58864;SDS011;45702;52.982;6.658;2023-04-06T01:59:09;21.00;;;13.02;;
58864;SDS011;45702;52.982;6.658;2023-04-06T02:01:35;21.77;;;13.65;;
58864;SDS011;45702;52.982;6.658;2023-04-06T02:04:01;20.45;;;13.38;;
58864;SDS011;45702;52.982;6.658;2023-04-06T02:06:27;21.58;;;14.38;;
58864;SDS011;45702;52.982;6.658;2023-04-06T02:08:53;21.33;;;13.98;;
58864;SDS011;45702;52.982;6.658;2023-04-06T02:11:19;21.95;;;14.32;;
58864;SDS011;45702;52.982;6.658;2023-04-06T02:13:45;23.13;;;13.82;;
58864;SDS011;45702;52.982;6.658;2023-04-06T02:16:11;22.40;;;14.10;;
58864;SDS011;45702;52.982;6.658;2023-04-06T02:18:37;22.38;;;14.07;;
58864;SDS011;45702;52.982;6.658;2023-04-06T02:21:03;20.10;;;13.60;;
58864;SDS011;45702;52.982;6.658;2023-04-06T02:23:29;21.35;;;13.48;;
58864;SDS011;45702;52.982;6.658;2023-04-06T02:25:55;22.65;;;13.52;;
58864;SDS011;45702;52.982;6.658;2023-04-06T02:28:21;18.92;;;13.05;;
58864;SDS011;45702;52.982;6.658;2023-04-06T02:30:47;20.90;;;12.75;;
58864;SDS011;45702;52.982;6.658;2023-04-06T02:33:13;22.45;;;13.98;;
58864;SDS011;45702;52.982;6.658;2023-04-06T02:35:40;20.55;;;13.70;;
58864;SDS011;45702;52.982;6.658;2023-04-06T02:38:06;24.73;;;14.93;;
58864;SDS011;45702;52.982;6.658;2023-04-06T02:40:32;21.85;;;14.20;;
58864;SDS011;45702;52.982;6.658;2023-04-06T02:42:58;23.08;;;14.00;;
58864;SDS011;45702;52.982;6.658;2023-04-06T02:45:24;21.35;;;13.65;;
58864;SDS011;45702;52.982;6.658;2023-04-06T02:47:51;21.13;;;14.07;;
58864;SDS011;45702;52.982;6.658;2023-04-06T02:50:17;22.92;;;13.68;;
58864;SDS011;45702;52.982;6.658;2023-04-06T02:52:43;19.20;;;13.13;;
58864;SDS011;45702;52.982;6.658;2023-04-06T02:55:09;22.50;;;14.18;;
58864;SDS011;45702;52.982;6.658;2023-04-06T02:57:35;21.85;;;13.50;;
58864;SDS011;45702;52.982;6.658;2023-04-06T03:00:01;24.63;;;13.73;;
58864;SDS011;45702;52.982;6.658;2023-04-06T03:02:27;24.33;;;13.88;;
58864;SDS011;45702;52.982;6.658;2023-04-06T03:04:53;21.70;;;13.63;;
58864;SDS011;45702;52.982;6.658;2023-04-06T03:07:20;20.23;;;12.60;;
58864;SDS011;45702;52.982;6.658;2023-04-06T03:09:46;22.40;;;13.90;;
58864;SDS011;45702;52.982;6.658;2023-04-06T03:12:12;20.45;;;13.45;;
58864;SDS011;45702;52.982;6.658;2023-04-06T03:14:38;20.30;;;13.73;;
58864;SDS011;45702;52.982;6.658;2023-04-06T03:17:04;21.30;;;14.13;;
58864;SDS011;45702;52.982;6.658;2023-04-06T03:19:30;21.88;;;14.07;;
58864;SDS011;45702;52.982;6.658;2023-04-06T03:21:56;22.27;;;13.85;;
58864;SDS011;45702;52.982;6.658;2023-04-06T03:24:22;22.55;;;13.73;;
58864;SDS011;45702;52.982;6.658;2023-04-06T03:26:49;22.30;;;14.40;;
58864;SDS011;45702;52.982;6.658;2023-04-06T03:29:15;24.63;;;14.73;;
58864;SDS011;45702;52.982;6.658;2023-04-06T03:31:41;21.67;;;14.35;;
58864;SDS011;45702;52.982;6.658;2023-04-06T03:34:07;22.65;;;13.77;;
58864;SDS011;45702;52.982;6.658;2023-04-06T03:36:34;23.55;;;15.20;;
58864;SDS011;45702;52.982;6.658;2023-04-06T03:39:00;22.40;;;14.52;;
58864;SDS011;45702;52.982;6.658;2023-04-06T03:41:26;25.52;;;14.93;;
58864;SDS011;45702;52.982;6.658;2023-04-06T03:43:52;21.65;;;14.23;;
58864;SDS011;45702;52.982;6.658;2023-04-06T03:46:18;20.75;;;13.63;;
58864;SDS011;45702;52.982;6.658;2023-04-06T03:48:45;23.85;;;15.40;;
58864;SDS011;45702;52.982;6.658;2023-04-06T03:51:11;22.60;;;14.63;;
58864;SDS011;45702;52.982;6.658;2023-04-06T03:53:37;22.75;;;14.23;;
58864;SDS011;45702;52.982;6.658;2023-04-06T03:56:03;23.15;;;13.70;;
58864;SDS011;45702;52.982;6.658;2023-04-06T03:58:29;23.15;;;14.40;;
58864;SDS011;45702;52.982;6.658;2023-04-06T04:00:56;21.30;;;14.27;;
58864;SDS011;45702;52.982;6.658;2023-04-06T04:03:22;22.35;;;15.18;;
58864;SDS011;45702;52.982;6.658;2023-04-06T04:05:52;23.20;;;15.00;;
58864;SDS011;45702;52.982;6.658;2023-04-06T04:08:20;23.10;;;14.88;;
58864;SDS011;45702;52.982;6.658;2023-04-06T04:10:46;23.35;;;14.20;;
58864;SDS011;45702;52.982;6.658;2023-04-06T04:13:12;23.10;;;14.40;;
58864;SDS011;45702;52.982;6.658;2023-04-06T04:15:38;24.95;;;15.48;;
58864;SDS011;45702;52.982;6.658;2023-04-06T04:18:04;21.77;;;14.05;;
58864;SDS011;45702;52.982;6.658;2023-04-06T04:20:30;25.77;;;14.73;;
58864;SDS011;45702;52.982;6.658;2023-04-06T04:22:56;21.63;;;14.18;;
58864;SDS011;45702;52.982;6.658;2023-04-06T04:25:22;24.08;;;14.93;;
58864;SDS011;45702;52.982;6.658;2023-04-06T04:27:49;20.48;;;14.20;;
58864;SDS011;45702;52.982;6.658;2023-04-06T04:30:15;22.48;;;15.02;;
58864;SDS011;45702;52.982;6.658;2023-04-06T04:32:41;26.08;;;14.85;;
58864;SDS011;45702;52.982;6.658;2023-04-06T04:35:07;22.45;;;14.32;;
58864;SDS011;45702;52.982;6.658;2023-04-06T04:37:34;21.98;;;14.63;;
58864;SDS011;45702;52.982;6.658;2023-04-06T04:40:00;25.08;;;15.50;;
58864;SDS011;45702;52.982;6.658;2023-04-06T04:42:26;23.40;;;15.80;;
58864;SDS011;45702;52.982;6.658;2023-04-06T04:44:52;27.02;;;15.63;;
58864;SDS011;45702;52.982;6.658;2023-04-06T04:47:18;28.23;;;15.15;;
58864;SDS011;45702;52.982;6.658;2023-04-06T04:49:44;25.75;;;15.88;;
58864;SDS011;45702;52.982;6.658;2023-04-06T04:52:10;30.55;;;16.25;;
58864;SDS011;45702;52.982;6.658;2023-04-06T04:54:36;25.77;;;15.55;;
58864;SDS011;45702;52.982;6.658;2023-04-06T04:57:03;28.35;;;16.40;;
58864;SDS011;45702;52.982;6.658;2023-04-06T04:59:29;27.83;;;16.23;;
58864;SDS011;45702;52.982;6.658;2023-04-06T05:01:55;24.70;;;15.32;;
58864;SDS011;45702;52.982;6.658;2023-04-06T05:04:22;26.83;;;15.95;;
58864;SDS011;45702;52.982;6.658;2023-04-06T05:06:48;26.70;;;16.48;;
58864;SDS011;45702;52.982;6.658;2023-04-06T05:09:15;25.42;;;16.48;;
58864;SDS011;45702;52.982;6.658;2023-04-06T05:11:42;25.80;;;16.30;;
58864;SDS011;45702;52.982;6.658;2023-04-06T05:14:08;33.67;;;16.63;;
58864;SDS011;45702;52.982;6.658;2023-04-06T05:16:35;28.80;;;16.25;;
58864;SDS011;45702;52.982;6.658;2023-04-06T05:19:01;27.85;;;16.80;;
58864;SDS011;45702;52.982;6.658;2023-04-06T05:21:27;28.83;;;16.35;;
58864;SDS011;45702;52.982;6.658;2023-04-06T05:23:53;27.45;;;16.08;;
58864;SDS011;45702;52.982;6.658;2023-04-06T05:26:19;28.75;;;16.55;;
58864;SDS011;45702;52.982;6.658;2023-04-06T05:28:45;30.65;;;16.80;;
58864;SDS011;45702;52.982;6.658;2023-04-06T05:31:11;33.03;;;16.33;;
58864;SDS011;45702;52.982;6.658;2023-04-06T05:33:37;23.35;;;15.75;;
58864;SDS011;45702;52.982;6.658;2023-04-06T05:36:04;29.25;;;17.10;;
58864;SDS011;45702;52.982;6.658;2023-04-06T05:38:32;26.65;;;17.10;;
58864;SDS011;45702;52.982;6.658;2023-04-06T05:40:58;28.70;;;17.30;;
58864;SDS011;45702;52.982;6.658;2023-04-06T05:43:24;31.13;;;17.50;;
58864;SDS011;45702;52.982;6.658;2023-04-06T05:45:50;26.23;;;16.40;;
58864;SDS011;45702;52.982;6.658;2023-04-06T05:48:16;29.35;;;17.27;;
58864;SDS011;45702;52.982;6.658;2023-04-06T05:50:42;23.92;;;16.70;;
58864;SDS011;45702;52.982;6.658;2023-04-06T05:53:08;28.65;;;17.08;;
58864;SDS011;45702;52.982;6.658;2023-04-06T05:55:34;25.25;;;16.63;;
58864;SDS011;45702;52.982;6.658;2023-04-06T05:58:00;28.77;;;17.27;;
58864;SDS011;45702;52.982;6.658;2023-04-06T06:00:26;28.65;;;17.17;;
58864;SDS011;45702;52.982;6.658;2023-04-06T06:02:52;25.55;;;16.20;;
58864;SDS011;45702;52.982;6.658;2023-04-06T06:05:18;31.45;;;17.15;;
58864;SDS011;45702;52.982;6.658;2023-04-06T06:07:45;35.50;;;18.08;;
58864;SDS011;45702;52.982;6.658;2023-04-06T06:10:11;27.42;;;17.10;;
58864;SDS011;45702;52.982;6.658;2023-04-06T06:12:37;27.88;;;17.10;;
58864;SDS011;45702;52.982;6.658;2023-04-06T06:15:03;26.55;;;17.30;;
58864;SDS011;45702;52.982;6.658;2023-04-06T06:17:30;27.88;;;16.98;;
58864;SDS011;45702;52.982;6.658;2023-04-06T06:19:56;28.80;;;16.55;;
58864;SDS011;45702;52.982;6.658;2023-04-06T06:22:22;25.85;;;16.98;;
58864;SDS011;45702;52.982;6.658;2023-04-06T06:24:48;30.13;;;17.63;;
58864;SDS011;45702;52.982;6.658;2023-04-06T06:27:15;34.83;;;19.10;;
58864;SDS011;45702;52.982;6.658;2023-04-06T06:29:41;29.02;;;18.20;;
58864;SDS011;45702;52.982;6.658;2023-04-06T06:32:07;27.10;;;18.05;;
58864;SDS011;45702;52.982;6.658;2023-04-06T06:34:34;29.73;;;17.75;;
58864;SDS011;45702;52.982;6.658;2023-04-06T06:37:00;30.23;;;17.02;;
58864;SDS011;45702;52.982;6.658;2023-04-06T06:39:31;30.50;;;17.17;;
58864;SDS011;45702;52.982;6.658;2023-04-06T06:41:57;26.30;;;17.25;;
58864;SDS011;45702;52.982;6.658;2023-04-06T06:44:26;32.85;;;17.17;;
58864;SDS011;45702;52.982;6.658;2023-04-06T06:46:52;29.00;;;17.98;;
58864;SDS011;45702;52.982;6.658;2023-04-06T06:49:18;29.42;;;17.60;;
58864;SDS011;45702;52.982;6.658;2023-04-06T06:51:45;29.27;;;17.15;;
58864;SDS011;45702;52.982;6.658;2023-04-06T06:54:11;27.38;;;17.23;;
58864;SDS011;45702;52.982;6.658;2023-04-06T06:56:38;31.60;;;17.38;;
58864;SDS011;45702;52.982;6.658;2023-04-06T06:59:04;28.75;;;17.35;;
58864;SDS011;45702;52.982;6.658;2023-04-06T07:01:33;31.40;;;18.17;;
58864;SDS011;45702;52.982;6.658;2023-04-06T07:03:59;26.70;;;17.40;;
58864;SDS011;45702;52.982;6.658;2023-04-06T07:06:26;26.42;;;17.15;;
58864;SDS011;45702;52.982;6.658;2023-04-06T07:08:52;30.75;;;17.33;;
58864;SDS011;45702;52.982;6.658;2023-04-06T07:11:18;29.75;;;17.30;;
58864;SDS011;45702;52.982;6.658;2023-04-06T07:13:44;31.00;;;17.65;;
58864;SDS011;45702;52.982;6.658;2023-04-06T07:16:10;30.48;;;17.08;;
58864;SDS011;45702;52.982;6.658;2023-04-06T07:18:36;27.05;;;17.55;;
58864;SDS011;45702;52.982;6.658;2023-04-06T07:21:02;32.20;;;17.73;;
58864;SDS011;45702;52.982;6.658;2023-04-06T07:23:28;29.25;;;18.40;;
58864;SDS011;45702;52.982;6.658;2023-04-06T07:25:54;29.83;;;18.25;;
58864;SDS011;45702;52.982;6.658;2023-04-06T07:28:20;28.73;;;17.35;;
58864;SDS011;45702;52.982;6.658;2023-04-06T07:30:47;29.58;;;17.25;;
58864;SDS011;45702;52.982;6.658;2023-04-06T07:33:13;27.92;;;17.42;;
58864;SDS011;45702;52.982;6.658;2023-04-06T07:35:39;26.35;;;16.88;;
58864;SDS011;45702;52.982;6.658;2023-04-06T07:38:05;28.77;;;17.60;;
58864;SDS011;45702;52.982;6.658;2023-04-06T07:40:31;28.65;;;17.88;;
58864;SDS011;45702;52.982;6.658;2023-04-06T07:42:57;27.05;;;17.02;;
58864;SDS011;45702;52.982;6.658;2023-04-06T07:45:23;31.80;;;16.88;;
58864;SDS011;45702;52.982;6.658;2023-04-06T07:47:50;27.73;;;17.25;;
58864;SDS011;45702;52.982;6.658;2023-04-06T07:50:16;29.45;;;17.73;;
58864;SDS011;45702;52.982;6.658;2023-04-06T07:52:42;28.23;;;16.90;;
58864;SDS011;45702;52.982;6.658;2023-04-06T07:55:08;28.85;;;17.40;;
58864;SDS011;45702;52.982;6.658;2023-04-06T07:57:34;29.45;;;17.30;;
58864;SDS011;45702;52.982;6.658;2023-04-06T08:00:00;28.02;;;17.35;;
58864;SDS011;45702;52.982;6.658;2023-04-06T08:02:29;28.23;;;17.73;;
58864;SDS011;45702;52.982;6.658;2023-04-06T08:04:55;26.42;;;17.45;;
58864;SDS011;45702;52.982;6.658;2023-04-06T08:07:21;25.85;;;16.77;;
58864;SDS011;45702;52.982;6.658;2023-04-06T08:09:47;31.20;;;16.90;;
58864;SDS011;45702;52.982;6.658;2023-04-06T08:12:13;28.48;;;17.42;;
58864;SDS011;45702;52.982;6.658;2023-04-06T08:14:39;25.65;;;15.80;;
58864;SDS011;45702;52.982;6.658;2023-04-06T08:17:05;24.90;;;16.40;;
58864;SDS011;45702;52.982;6.658;2023-04-06T08:19:31;26.52;;;16.75;;
58864;SDS011;45702;52.982;6.658;2023-04-06T08:21:57;24.08;;;16.02;;
58864;SDS011;45702;52.982;6.658;2023-04-06T08:24:24;31.77;;;17.08;;
58864;SDS011;45702;52.982;6.658;2023-04-06T08:26:50;30.83;;;16.45;;
58864;SDS011;45702;52.982;6.658;2023-04-06T08:29:16;27.50;;;16.50;;
58864;SDS011;45702;52.982;6.658;2023-04-06T08:31:42;26.52;;;16.38;;
58864;SDS011;45702;52.982;6.658;2023-04-06T08:34:09;25.25;;;16.00;;
58864;SDS011;45702;52.982;6.658;2023-04-06T08:36:35;27.05;;;15.98;;
58864;SDS011;45702;52.982;6.658;2023-04-06T08:39:01;25.35;;;16.60;;
58864;SDS011;45702;52.982;6.658;2023-04-06T08:41:27;29.25;;;16.55;;
58864;SDS011;45702;52.982;6.658;2023-04-06T08:43:57;33.17;;;16.33;;
58864;SDS011;45702;52.982;6.658;2023-04-06T08:46:23;23.65;;;16.42;;
58864;SDS011;45702;52.982;6.658;2023-04-06T08:49:00;29.63;;;16.88;;
58864;SDS011;45702;52.982;6.658;2023-04-06T08:51:26;26.73;;;16.58;;
58864;SDS011;45702;52.982;6.658;2023-04-06T08:53:56;28.52;;;16.35;;
58864;SDS011;45702;52.982;6.658;2023-04-06T08:56:23;25.80;;;16.10;;
58864;SDS011;45702;52.982;6.658;2023-04-06T08:58:49;32.25;;;16.63;;
58864;SDS011;45702;52.982;6.658;2023-04-06T09:01:17;26.38;;;16.27;;
58864;SDS011;45702;52.982;6.658;2023-04-06T09:03:43;25.40;;;16.25;;
58864;SDS011;45702;52.982;6.658;2023-04-06T09:06:10;27.55;;;16.13;;
58864;SDS011;45702;52.982;6.658;2023-04-06T09:08:38;26.42;;;16.20;;
58864;SDS011;45702;52.982;6.658;2023-04-06T09:11:05;25.23;;;16.20;;
58864;SDS011;45702;52.982;6.658;2023-04-06T09:13:31;27.25;;;16.65;;
58864;SDS011;45702;52.982;6.658;2023-04-06T09:16:01;26.55;;;15.95;;
58864;SDS011;45702;52.982;6.658;2023-04-06T09:18:27;24.30;;;15.93;;
58864;SDS011;45702;52.982;6.658;2023-04-06T09:21:00;30.25;;;16.48;;
58864;SDS011;45702;52.982;6.658;2023-04-06T09:23:27;28.75;;;16.30;;
58864;SDS011;45702;52.982;6.658;2023-04-06T09:26:15;26.48;;;16.75;;
58864;SDS011;45702;52.982;6.658;2023-04-06T09:28:49;29.83;;;16.83;;
58864;SDS011;45702;52.982;6.658;2023-04-06T09:31:16;29.08;;;16.98;;
58864;SDS011;45702;52.982;6.658;2023-04-06T09:33:46;29.92;;;17.30;;
58864;SDS011;45702;52.982;6.658;2023-04-06T09:36:15;33.45;;;18.92;;
58864;SDS011;45702;52.982;6.658;2023-04-06T09:38:52;29.73;;;18.38;;
58864;SDS011;45702;52.982;6.658;2023-04-06T09:41:26;30.08;;;18.10;;
58864;SDS011;45702;52.982;6.658;2023-04-06T09:44:01;31.70;;;18.83;;
58864;SDS011;45702;52.982;6.658;2023-04-06T09:46:27;29.58;;;18.23;;
58864;SDS011;45702;52.982;6.658;2023-04-06T09:48:56;32.80;;;19.38;;
58864;SDS011;45702;52.982;6.658;2023-04-06T09:51:22;30.23;;;18.23;;
58864;SDS011;45702;52.982;6.658;2023-04-06T09:53:52;30.65;;;18.92;;
58864;SDS011;45702;52.982;6.658;2023-04-06T09:56:20;35.45;;;19.90;;
58864;SDS011;45702;52.982;6.658;2023-04-06T09:58:49;40.15;;;21.75;;
58864;SDS011;45702;52.982;6.658;2023-04-06T10:01:15;42.50;;;21.50;;
58864;SDS011;45702;52.982;6.658;2023-04-06T10:03:45;37.95;;;21.40;;
58864;SDS011;45702;52.982;6.658;2023-04-06T10:06:15;39.45;;;20.63;;
58864;SDS011;45702;52.982;6.658;2023-04-06T10:08:45;37.97;;;20.63;;
58864;SDS011;45702;52.982;6.658;2023-04-06T10:11:12;39.00;;;21.10;;
58864;SDS011;45702;52.982;6.658;2023-04-06T10:13:38;41.67;;;22.77;;
58864;SDS011;45702;52.982;6.658;2023-04-06T10:16:04;44.55;;;23.20;;
58864;SDS011;45702;52.982;6.658;2023-04-06T10:18:30;42.80;;;22.88;;
58864;SDS011;45702;52.982;6.658;2023-04-06T10:23:36;40.45;;;22.67;;
58864;SDS011;45702;52.982;6.658;2023-04-06T10:26:03;39.65;;;23.20;;
58864;SDS011;45702;52.982;6.658;2023-04-06T10:28:33;42.63;;;23.35;;
58864;SDS011;45702;52.982;6.658;2023-04-06T10:31:02;39.25;;;22.83;;
58864;SDS011;45702;52.982;6.658;2023-04-06T10:33:30;41.85;;;23.20;;
58864;SDS011;45702;52.982;6.658;2023-04-06T10:35:56;42.53;;;23.75;;
58864;SDS011;45702;52.982;6.658;2023-04-06T10:38:35;41.80;;;24.02;;
58864;SDS011;45702;52.982;6.658;2023-04-06T10:41:05;39.75;;;23.60;;
58864;SDS011;45702;52.982;6.658;2023-04-06T10:43:34;43.03;;;24.58;;
58864;SDS011;45702;52.982;6.658;2023-04-06T10:46:01;40.13;;;24.67;;
58864;SDS011;45702;52.982;6.658;2023-04-06T10:48:37;42.45;;;24.17;;
58864;SDS011;45702;52.982;6.658;2023-04-06T10:51:09;44.70;;;23.38;;
58864;SDS011;45702;52.982;6.658;2023-04-06T10:53:35;46.35;;;24.67;;
58864;SDS011;45702;52.982;6.658;2023-04-06T10:56:01;40.72;;;24.55;;
58864;SDS011;45702;52.982;6.658;2023-04-06T10:58:28;44.28;;;24.35;;
58864;SDS011;45702;52.982;6.658;2023-04-06T11:00:55;45.80;;;25.33;;
58864;SDS011;45702;52.982;6.658;2023-04-06T11:03:22;49.58;;;26.20;;
58864;SDS011;45702;52.982;6.658;2023-04-06T11:05:48;45.35;;;25.65;;
58864;SDS011;45702;52.982;6.658;2023-04-06T11:08:31;43.75;;;25.15;;
58864;SDS011;45702;52.982;6.658;2023-04-06T11:13:42;46.03;;;27.08;;
58864;SDS011;45702;52.982;6.658;2023-04-06T11:16:12;44.90;;;26.58;;
58864;SDS011;45702;52.982;6.658;2023-04-06T11:18:38;50.63;;;27.48;;
58864;SDS011;45702;52.982;6.658;2023-04-06T11:21:11;46.65;;;26.75;;
58864;SDS011;45702;52.982;6.658;2023-04-06T11:23:38;51.53;;;28.25;;
58864;SDS011;45702;52.982;6.658;2023-04-06T11:26:04;45.92;;;27.73;;
58864;SDS011;45702;52.982;6.658;2023-04-06T11:28:30;46.25;;;27.85;;
58864;SDS011;45702;52.982;6.658;2023-04-06T11:30:56;49.63;;;26.15;;
58864;SDS011;45702;52.982;6.658;2023-04-06T11:33:22;48.20;;;27.27;;
58864;SDS011;45702;52.982;6.658;2023-04-06T11:35:48;47.83;;;27.55;;
58864;SDS011;45702;52.982;6.658;2023-04-06T11:38:14;47.97;;;27.60;;
58864;SDS011;45702;52.982;6.658;2023-04-06T11:40:40;46.75;;;27.63;;
58864;SDS011;45702;52.982;6.658;2023-04-06T11:43:06;47.22;;;26.52;;
58864;SDS011;45702;52.982;6.658;2023-04-06T11:45:41;42.63;;;26.02;;
58864;SDS011;45702;52.982;6.658;2023-04-06T11:48:19;45.28;;;26.65;;
58864;SDS011;45702;52.982;6.658;2023-04-06T11:50:47;52.90;;;27.52;;
58864;SDS011;45702;52.982;6.658;2023-04-06T11:53:14;47.90;;;26.63;;
58864;SDS011;45702;52.982;6.658;2023-04-06T11:55:40;46.17;;;26.60;;
58864;SDS011;45702;52.982;6.658;2023-04-06T11:58:10;49.00;;;26.77;;
58864;SDS011;45702;52.982;6.658;2023-04-06T12:00:36;43.70;;;26.25;;
58864;SDS011;45702;52.982;6.658;2023-04-06T12:03:02;47.92;;;28.25;;
58864;SDS011;45702;52.982;6.658;2023-04-06T12:05:28;43.90;;;27.10;;
58864;SDS011;45702;52.982;6.658;2023-04-06T12:07:54;48.60;;;27.10;;
58864;SDS011;45702;52.982;6.658;2023-04-06T12:10:20;51.50;;;27.45;;
58864;SDS011;45702;52.982;6.658;2023-04-06T12:12:46;49.35;;;27.95;;
58864;SDS011;45702;52.982;6.658;2023-04-06T12:15:12;46.05;;;26.70;;
58864;SDS011;45702;52.982;6.658;2023-04-06T12:17:38;52.75;;;27.25;;
58864;SDS011;45702;52.982;6.658;2023-04-06T12:20:04;49.90;;;27.70;;
58864;SDS011;45702;52.982;6.658;2023-04-06T12:22:31;46.45;;;26.48;;
58864;SDS011;45702;52.982;6.658;2023-04-06T12:24:57;51.13;;;27.63;;
58864;SDS011;45702;52.982;6.658;2023-04-06T12:27:23;45.55;;;26.38;;
58864;SDS011;45702;52.982;6.658;2023-04-06T12:29:50;47.03;;;27.20;;
58864;SDS011;45702;52.982;6.658;2023-04-06T12:32:16;45.35;;;26.55;;
58864;SDS011;45702;52.982;6.658;2023-04-06T12:34:42;48.33;;;26.75;;
58864;SDS011;45702;52.982;6.658;2023-04-06T12:37:08;47.10;;;27.60;;
58864;SDS011;45702;52.982;6.658;2023-04-06T12:39:34;46.05;;;27.70;;
58864;SDS011;45702;52.982;6.658;2023-04-06T12:42:00;48.03;;;27.40;;
58864;SDS011;45702;52.982;6.658;2023-04-06T12:44:27;47.15;;;26.95;;
58864;SDS011;45702;52.982;6.658;2023-04-06T12:46:53;43.50;;;26.35;;
58864;SDS011;45702;52.982;6.658;2023-04-06T12:49:20;46.33;;;26.52;;
58864;SDS011;45702;52.982;6.658;2023-04-06T12:51:47;43.65;;;26.45;;
58864;SDS011;45702;52.982;6.658;2023-04-06T12:54:13;47.63;;;27.88;;
58864;SDS011;45702;52.982;6.658;2023-04-06T12:56:39;49.13;;;26.63;;
58864;SDS011;45702;52.982;6.658;2023-04-06T12:59:06;43.42;;;26.33;;
58864;SDS011;45702;52.982;6.658;2023-04-06T13:01:32;46.08;;;25.73;;
58864;SDS011;45702;52.982;6.658;2023-04-06T13:03:58;44.33;;;26.30;;
58864;SDS011;45702;52.982;6.658;2023-04-06T13:06:24;48.22;;;26.17;;
58864;SDS011;45702;52.982;6.658;2023-04-06T13:08:52;47.97;;;27.27;;
58864;SDS011;45702;52.982;6.658;2023-04-06T13:11:18;44.30;;;26.13;;
58864;SDS011;45702;52.982;6.658;2023-04-06T13:13:46;45.90;;;25.85;;
58864;SDS011;45702;52.982;6.658;2023-04-06T13:16:12;44.72;;;25.92;;
58864;SDS011;45702;52.982;6.658;2023-04-06T13:18:38;44.35;;;26.17;;
58864;SDS011;45702;52.982;6.658;2023-04-06T13:21:05;47.90;;;26.15;;
58864;SDS011;45702;52.982;6.658;2023-04-06T13:23:31;38.50;;;20.23;;
58864;SDS011;45702;52.982;6.658;2023-04-06T13:26:01;39.13;;;23.83;;
58864;SDS011;45702;52.982;6.658;2023-04-06T13:28:28;42.67;;;25.05;;
58864;SDS011;45702;52.982;6.658;2023-04-06T13:30:55;41.72;;;23.77;;
58864;SDS011;45702;52.982;6.658;2023-04-06T13:33:21;44.28;;;24.27;;
58864;SDS011;45702;52.982;6.658;2023-04-06T13:35:47;42.63;;;24.05;;
58864;SDS011;45702;52.982;6.658;2023-04-06T13:38:13;42.45;;;23.08;;
58864;SDS011;45702;52.982;6.658;2023-04-06T13:40:40;42.15;;;23.05;;
58864;SDS011;45702;52.982;6.658;2023-04-06T13:43:06;39.78;;;24.23;;
58864;SDS011;45702;52.982;6.658;2023-04-06T13:45:32;41.83;;;21.17;;
58864;SDS011;45702;52.982;6.658;2023-04-06T13:47:58;42.55;;;23.70;;
58864;SDS011;45702;52.982;6.658;2023-04-06T13:50:25;40.53;;;23.15;;
58864;SDS011;45702;52.982;6.658;2023-04-06T13:52:52;42.30;;;23.98;;
58864;SDS011;45702;52.982;6.658;2023-04-06T13:55:18;37.83;;;22.23;;
58864;SDS011;45702;52.982;6.658;2023-04-06T13:57:44;44.53;;;23.90;;
58864;SDS011;45702;52.982;6.658;2023-04-06T14:00:10;38.58;;;22.77;;
58864;SDS011;45702;52.982;6.658;2023-04-06T14:02:38;36.47;;;19.60;;
58864;SDS011;45702;52.982;6.658;2023-04-06T14:05:04;40.80;;;21.58;;
58864;SDS011;45702;52.982;6.658;2023-04-06T14:07:30;43.47;;;22.67;;
58864;SDS011;45702;52.982;6.658;2023-04-06T14:09:56;37.88;;;22.00;;
58864;SDS011;45702;52.982;6.658;2023-04-06T14:12:22;39.85;;;22.17;;
58864;SDS011;45702;52.982;6.658;2023-04-06T14:14:48;35.85;;;21.67;;
58864;SDS011;45702;52.982;6.658;2023-04-06T14:17:15;37.40;;;20.45;;
58864;SDS011;45702;52.982;6.658;2023-04-06T14:19:41;35.08;;;19.98;;
58864;SDS011;45702;52.982;6.658;2023-04-06T14:22:08;33.90;;;19.23;;
58864;SDS011;45702;52.982;6.658;2023-04-06T14:24:34;36.40;;;19.30;;